DLH8HY EKCH-EDDM
Flight info
| Callsign | DLH8HY |
|---|---|
| Flight time | N/A |
| Altitude | 36000 |
| Route | NEXEN T503 MICOS DCT NEBUN/N0472F370 DCT EMBOX DCT SODRO/N0459F310 T703 LULAR T105 LANDU LANDU2A |
| Aircraft | B77L/H-SDE1E2E3FGHIJ2J3J4J5M1RWXY/LB1D1 |
Departure
| Time | 2026-04-21 19:41 |
|---|---|
| Airport | Copenhagen Kastrup Airport (EKCH) |
Arrival
| Time | N/A |
|---|---|
| Airport | Munich Airport (EDDM) |
| Time | Latitude | Longitude | Altitude | Speed | Heading |
|---|---|---|---|---|---|
| 2026-04-21 19:10 | 55.62420 | 12.64909 | 25 ft | 0 kts | 89° |
| 2026-04-21 19:32 | 55.62420 | 12.64887 | 25 ft | 2 kts | 99° |
| 2026-04-21 19:32 | 55.62423 | 12.64862 | 24 ft | 2 kts | 112° |
| 2026-04-21 19:32 | 55.62430 | 12.64838 | 24 ft | 2 kts | 123° |
| 2026-04-21 19:32 | 55.62439 | 12.64817 | 24 ft | 2 kts | 134° |
| 2026-04-21 19:33 | 55.62446 | 12.64805 | 24 ft | 2 kts | 141° |
| 2026-04-21 19:33 | 55.62463 | 12.64786 | 24 ft | 2 kts | 156° |
| 2026-04-21 19:33 | 55.62476 | 12.64777 | 25 ft | 2 kts | 168° |
| 2026-04-21 19:33 | 55.62491 | 12.64773 | 25 ft | 2 kts | 179° |
| 2026-04-21 19:34 | 55.62501 | 12.64773 | 25 ft | 0 kts | 180° |
| 2026-04-21 19:37 | 55.62468 | 12.64776 | 24 ft | 9 kts | 177° |
| 2026-04-21 19:37 | 55.62386 | 12.64781 | 23 ft | 12 kts | 180° |
| 2026-04-21 19:37 | 55.62322 | 12.64694 | 22 ft | 12 kts | 244° |
| 2026-04-21 19:37 | 55.62284 | 12.64559 | 22 ft | 11 kts | 244° |
| 2026-04-21 19:38 | 55.62250 | 12.64428 | 22 ft | 11 kts | 239° |
| 2026-04-21 19:38 | 55.62191 | 12.64342 | 22 ft | 10 kts | 210° |
| 2026-04-21 19:38 | 55.62147 | 12.64303 | 22 ft | 10 kts | 206° |
| 2026-04-21 19:38 | 55.62063 | 12.64232 | 23 ft | 9 kts | 205° |
| 2026-04-21 19:39 | 55.62014 | 12.64191 | 24 ft | 6 kts | 205° |
| 2026-04-21 19:39 | 55.61978 | 12.64161 | 25 ft | 5 kts | 206° |
| 2026-04-21 19:39 | 55.61945 | 12.64132 | 25 ft | 5 kts | 206° |
| 2026-04-21 19:39 | 55.61910 | 12.64102 | 25 ft | 5 kts | 206° |
| 2026-04-21 19:40 | 55.61870 | 12.64076 | 26 ft | 7 kts | 197° |
| 2026-04-21 19:40 | 55.61811 | 12.64073 | 27 ft | 11 kts | 177° |
| 2026-04-21 19:40 | 55.61712 | 12.64083 | 27 ft | 15 kts | 177° |
| 2026-04-21 19:40 | 55.61615 | 12.64052 | 27 ft | 13 kts | 213° |
| 2026-04-21 19:41 | 55.61542 | 12.63944 | 26 ft | 14 kts | 222° |
| 2026-04-21 19:41 | 55.61333 | 12.63623 | 26 ft | 82 kts | 221° |
| 2026-04-21 19:41 | 55.60672 | 12.62601 | 27 ft | 166 kts | 221° |
| 2026-04-21 19:41 | 55.59721 | 12.61124 | 738 ft | 186 kts | 222° |
| 2026-04-21 19:42 | 55.58741 | 12.59646 | 1609 ft | 197 kts | 224° |
| 2026-04-21 19:42 | 55.57674 | 12.57973 | 2244 ft | 216 kts | 225° |
| 2026-04-21 19:42 | 55.56496 | 12.56153 | 2969 ft | 233 kts | 221° |
| 2026-04-21 19:42 | 55.55134 | 12.54485 | 3701 ft | 251 kts | 214° |
| 2026-04-21 19:43 | 55.53647 | 12.52743 | 4539 ft | 265 kts | 215° |
| 2026-04-21 19:43 | 55.52102 | 12.50874 | 5422 ft | 278 kts | 215° |
| 2026-04-21 19:43 | 55.50513 | 12.48930 | 6481 ft | 284 kts | 215° |
| 2026-04-21 19:43 | 55.48911 | 12.46968 | 7517 ft | 289 kts | 214° |
| 2026-04-21 19:44 | 55.47254 | 12.44941 | 8543 ft | 294 kts | 214° |
| 2026-04-21 19:44 | 55.45584 | 12.42900 | 9503 ft | 299 kts | 214° |
| 2026-04-21 19:44 | 55.43875 | 12.40814 | 10457 ft | 303 kts | 214° |
| 2026-04-21 19:44 | 55.42119 | 12.38674 | 11147 ft | 318 kts | 214° |
| 2026-04-21 19:45 | 55.40241 | 12.36387 | 11747 ft | 336 kts | 214° |
| 2026-04-21 19:45 | 55.38285 | 12.34008 | 12383 ft | 352 kts | 213° |
| 2026-04-21 19:45 | 55.36240 | 12.31524 | 12996 ft | 368 kts | 213° |
| 2026-04-21 19:45 | 55.34082 | 12.28906 | 13640 ft | 384 kts | 213° |
| 2026-04-21 19:46 | 55.31862 | 12.26217 | 14253 ft | 399 kts | 213° |
| 2026-04-21 19:46 | 55.29540 | 12.23407 | 15000 ft | 411 kts | 213° |
| 2026-04-21 19:46 | 55.27195 | 12.20573 | 15839 ft | 419 kts | 213° |
| 2026-04-21 19:46 | 55.24796 | 12.17677 | 16733 ft | 425 kts | 213° |
| 2026-04-21 19:47 | 55.22342 | 12.14721 | 17624 ft | 432 kts | 213° |
| 2026-04-21 19:47 | 55.19849 | 12.11720 | 18469 ft | 439 kts | 213° |
| 2026-04-21 19:47 | 55.17384 | 12.08601 | 19285 ft | 446 kts | 214° |
| 2026-04-21 19:47 | 55.14903 | 12.05404 | 20170 ft | 450 kts | 214° |
| 2026-04-21 19:48 | 55.12369 | 12.02148 | 20969 ft | 456 kts | 214° |
| 2026-04-21 19:48 | 55.09792 | 11.98846 | 21756 ft | 462 kts | 214° |
| 2026-04-21 19:48 | 55.07205 | 11.95541 | 22516 ft | 468 kts | 213° |
| 2026-04-21 19:48 | 55.04570 | 11.92184 | 23271 ft | 473 kts | 213° |
| 2026-04-21 19:49 | 55.01931 | 11.88829 | 23964 ft | 479 kts | 213° |
| 2026-04-21 19:49 | 54.99228 | 11.85399 | 24665 ft | 484 kts | 213° |
| 2026-04-21 19:49 | 54.96487 | 11.81928 | 25350 ft | 490 kts | 213° |
| 2026-04-21 19:49 | 54.93744 | 11.78460 | 26028 ft | 494 kts | 213° |
| 2026-04-21 19:50 | 54.91906 | 11.76142 | 26448 ft | 498 kts | 213° |
| 2026-04-21 19:50 | 54.88126 | 11.71380 | 27295 ft | 506 kts | 213° |
| 2026-04-21 19:50 | 54.85278 | 11.67800 | 27923 ft | 511 kts | 213° |
| 2026-04-21 19:50 | 54.82366 | 11.64147 | 28556 ft | 517 kts | 213° |
| 2026-04-21 19:51 | 54.79408 | 11.60441 | 29237 ft | 521 kts | 213° |
| 2026-04-21 19:51 | 54.76463 | 11.56761 | 29955 ft | 524 kts | 213° |
| 2026-04-21 19:51 | 54.73529 | 11.53097 | 30832 ft | 523 kts | 213° |
| 2026-04-21 19:51 | 54.70573 | 11.49416 | 31715 ft | 521 kts | 214° |
| 2026-04-21 19:52 | 54.67646 | 11.45775 | 32557 ft | 517 kts | 214° |
| 2026-04-21 19:52 | 54.64761 | 11.42194 | 33341 ft | 514 kts | 214° |
| 2026-04-21 19:52 | 54.61890 | 11.38636 | 34060 ft | 511 kts | 214° |
| 2026-04-21 19:52 | 54.58995 | 11.35058 | 34713 ft | 509 kts | 214° |
| 2026-04-21 19:53 | 54.56103 | 11.31489 | 35224 ft | 509 kts | 213° |